Language selection

Features

My Weather Profile Weather Topics  | 

Pacific - Georgia Basin: Past 24 Hour Conditions

 

La Perouse Bank - 46206

08:00 PM PST 04 March 2021Buoy position: 48.83N 126.0W
Disclaimer

This table is a summary of hourly weather conditions for the past 24 hours.
Please note that these observations might not always be representative of weather conditions over their associated marine area.

Date / Time
(PST)
Wind(knots) Wave height(m) Wave period(s) Pressure(kPa) Air tempC) Water tempC)
04 March 2021
20:00 SE 13 gust 17 4.1 10.0 101.3 8 8
19:00 SE 10 gust 13 4.4 11.0 101.3 8 8
18:00 SSE 6 gust 10 4.5 10.0 101.3 8 8
17:00 S 10 gust 13 5.0 11.0 101.3 9 8
16:00 S 12 gust 16 4.5 10.0 101.2 9 8
15:00 S 16 gust 19 4.6 9.0 101.1 9 8
14:00 S 19 gust 25 5.0 9.0 101.0 9 8
13:00 SSE 33 gust 41 5.2 8.0 100.8 8 8
12:00 SSE 35 gust 41 4.3 7.0 100.7 8 8
11:00 SE 33 gust 41 4.2 7.0 100.6 8 8
10:00 SE 31 gust 39 3.7 7.0 100.7 8 8
9:00 SE 29 gust 39 3.3 15.0 100.7 7 8
8:00 SE 27 gust 35 3.5 17.0 100.7 7 8
7:00 SE 25 gust 31 3.3 14.0 100.7 7 8
6:00 SSE 25 gust 29 3.2 12.0 100.8 7 8
5:00 SSE 23 gust 27 3.1 15.0 100.8 7 8
4:00 SSE 22 gust 27 3.0 13.0 100.8 7 8
3:00 SSE 19 gust 25 2.8 13.0 100.8 7 8
2:00 SSE 17 gust 23 2.8 14.0 100.9 7 8
1:00 SSE 17 gust 22 2.6 13.0 100.9 7 8
0:00 SSE 17 gust 23 2.8 14.0 100.9 7 8
03 March 2021
23:00 SE 17 gust 22 2.6 14.0 100.9 8 8
22:00 SE 19 gust 23 2.5 15.0 100.9 8 8
21:00 SE 17 gust 23 2.5 14.0 100.9 8 8
20:00 SE 17 gust 22 2.6 14.0 100.8 8 8

Zoom-in to make a selection

Map of Pacific - Georgia Basin marine weather areas Sentry Shoal - 46131 Halibut Bank - 46146 La Perouse Bank - 46206 Georgia Strait - 46303 English Bay - 46304 Discovery Island Esquimalt Harbour Kelp Reefs Malahat Race Rocks Lightstation Saturna Island Sheringham Point University of Victoria Victoria Gonzales Victoria Int'l Airport Ballenas Islands Campbell River Airport Comox Airport Entrance Island Fanny Island Nanaimo Airport Sisters Islets Estevan Point Port Alberni Tofino Airport Grief Point Howe Sound - Pam Rocks Powell River Airport Sechelt Squamish Airport Point Atkinson Sand Heads Lightstation Tsawwassen Ferry Terminal Vancouver Int'l Airport Vancouver Harbour West Vancouver
Legend:
buoy Buoy
land station Land Station

Pacific - Georgia Basin Area

Another Region

What we are doing

Features

Need to travel Alberta Highway 93?

Go prepared with Highway 93 forecasts. Highway regions are available in the Alberta text forecast bulletin between Lake Louise and Jasper. (Photo by: Natalie Anderson)

Date modified: